createdAt,value
2022-08-27T00:00:58.955Z,8.27
2022-08-27T00:06:01.518Z,8.73
2022-08-27T00:11:05.638Z,8.52
2022-08-27T00:16:11.091Z,8.70
2022-08-27T00:21:14.541Z,9.13
2022-08-27T00:26:18.879Z,9.60
2022-08-27T00:31:27.138Z,8.95
2022-08-27T00:36:30.354Z,8.73
2022-08-27T00:41:36.925Z,10.60
2022-08-27T00:46:43.824Z,9.57
2022-08-27T00:51:50.234Z,10.85
2022-08-27T00:56:55.652Z,10.73
2022-08-27T01:02:16.025Z,11.05
2022-08-27T01:07:19.272Z,11.57
2022-08-27T01:12:23.472Z,11.73
2022-08-27T01:17:27.606Z,11.98
2022-08-27T01:22:37.464Z,11.70
2022-08-27T01:27:43.877Z,11.55
2022-08-27T01:32:47.767Z,11.95
2022-08-27T01:42:58.049Z,11.70
2022-08-27T01:48:02.483Z,11.40
2022-08-27T01:53:07.709Z,11.13
2022-08-27T01:58:11.732Z,11.40
2022-08-27T02:03:19.145Z,11.48
2022-08-27T02:08:22.386Z,12.15
2022-08-27T02:13:26.296Z,12.80
2022-08-27T02:23:31.256Z,13.02
2022-08-27T02:28:35.570Z,20.75
2022-08-27T02:33:38.100Z,18.27
2022-08-27T02:38:40.694Z,19.33
2022-08-27T02:43:45.353Z,15.82
2022-08-27T02:48:48.454Z,15.25
2022-08-27T02:53:50.931Z,12.15
2022-08-27T02:58:55.349Z,12.15
2022-08-27T03:03:58.942Z,12.77
2022-08-27T03:09:01.461Z,18.67
2022-08-27T03:14:05.485Z,16.35
2022-08-27T03:19:09.005Z,24.55
2022-08-27T03:24:14.782Z,24.38
2022-08-27T03:29:18.749Z,24.27
2022-08-27T03:39:23.954Z,17.48
2022-08-27T03:44:27.774Z,14.70
2022-08-27T03:49:30.221Z,10.35
2022-08-27T03:54:35.795Z,10.05
2022-08-27T03:59:39.832Z,8.18
2022-08-27T04:04:42.314Z,8.10
2022-08-27T04:09:44.784Z,8.43
2022-08-27T04:14:48.679Z,8.23
2022-08-27T04:24:55.127Z,5.93
2022-08-27T04:30:01.877Z,7.30
2022-08-27T04:35:05.629Z,7.10
2022-08-27T04:40:09.283Z,7.20
2022-08-27T04:45:13.265Z,8.10
2022-08-27T04:55:18.836Z,9.45
2022-08-27T05:00:23.473Z,9.68
2022-08-27T05:05:28.418Z,9.07
2022-08-27T05:10:30.958Z,9.27
2022-08-27T05:15:34.986Z,8.98
2022-08-27T05:20:44.987Z,10.50
2022-08-27T05:25:50.285Z,11.98
2022-08-27T05:30:56.995Z,12.90
2022-08-27T05:36:01.008Z,13.38
2022-08-27T05:41:05.607Z,17.63
2022-08-27T05:46:12.040Z,20.42
2022-08-27T05:51:19.811Z,18.75
2022-08-27T06:01:37.395Z,20.27
2022-08-27T06:06:42.068Z,20.20
2022-08-27T06:11:46.415Z,18.33
2022-08-27T06:16:50.489Z,17.40
2022-08-27T06:22:01.310Z,19.40
2022-08-27T06:27:16.218Z,20.92
2022-08-27T06:32:20.032Z,19.83
2022-08-27T06:42:24.976Z,21.42
2022-08-27T06:47:28.856Z,21.38
2022-08-27T06:57:34.283Z,18.55
2022-08-27T07:02:38.845Z,16.65
2022-08-27T07:07:46.676Z,14.13
2022-08-27T07:12:51.575Z,12.00
2022-08-27T07:17:55.577Z,10.02
2022-08-27T07:23:02.094Z,11.18
2022-08-27T07:28:04.838Z,10.95
2022-08-27T07:33:08.924Z,12.20
2022-08-27T07:38:12.295Z,13.73
2022-08-27T07:43:41.383Z,13.38
2022-08-27T07:48:45.209Z,14.65
2022-08-27T07:53:48.235Z,14.02
2022-08-27T07:58:51.897Z,15.50
2022-08-27T08:03:55.758Z,14.50
2022-08-27T08:09:00.728Z,12.73
2022-08-27T08:14:03.298Z,11.60
2022-08-27T08:19:09.161Z,8.63
2022-08-27T08:24:11.746Z,7.90
2022-08-27T08:29:18.122Z,7.40
2022-08-27T08:34:22.379Z,6.35
2022-08-27T08:44:32.651Z,7.63
2022-08-27T08:49:44.020Z,7.93
2022-08-27T08:54:46.862Z,8.07
2022-08-27T09:00:01.618Z,8.35
2022-08-27T09:05:08.371Z,9.35
2022-08-27T09:10:21.396Z,8.73
2022-08-27T09:15:28.941Z,8.10
2022-08-27T09:20:34.030Z,8.55
2022-08-27T09:25:40.764Z,8.32
2022-08-27T09:30:44.193Z,8.38
2022-08-27T09:35:48.195Z,10.45
2022-08-27T09:45:57.441Z,9.45
2022-08-27T09:51:03.967Z,9.23
2022-08-27T09:56:09.939Z,10.43
2022-08-27T10:01:20.243Z,10.32
2022-08-27T10:06:30.118Z,9.63
2022-08-27T10:11:38.488Z,9.25
2022-08-27T10:16:55.166Z,10.30
2022-08-27T10:22:07.236Z,10.50
2022-08-27T10:27:22.005Z,11.05
2022-08-27T10:37:52.237Z,12.00
2022-08-27T10:43:06.652Z,12.38
2022-08-27T10:48:17.487Z,12.13
2022-08-27T10:53:28.100Z,11.98
2022-08-27T10:58:43.645Z,11.70
2022-08-27T11:03:51.636Z,10.50
2022-08-27T11:09:00.491Z,9.93
2022-08-27T11:14:20.627Z,11.68
2022-08-27T11:19:29.197Z,9.50
2022-08-27T11:24:40.283Z,10.20
2022-08-27T11:29:50.698Z,9.10
2022-08-27T11:35:04.541Z,8.43
2022-08-27T11:40:31.572Z,7.47
2022-08-27T11:45:38.549Z,7.50
2022-08-27T11:50:42.519Z,8.13
2022-08-27T11:55:45.054Z,7.55
2022-08-27T12:00:49.180Z,7.45
2022-08-27T12:06:10.886Z,8.48
2022-08-27T12:11:28.950Z,7.80
2022-08-27T12:16:41.363Z,8.20
2022-08-27T12:22:01.229Z,9.00
2022-08-27T12:27:18.961Z,8.38
2022-08-27T12:32:27.610Z,8.55
2022-08-27T12:37:36.132Z,8.35
2022-08-27T12:42:38.934Z,10.07
2022-08-27T12:47:50.661Z,9.15
2022-08-27T12:53:15.615Z,9.50
2022-08-27T12:58:24.924Z,8.90
2022-08-27T13:03:33.789Z,8.93
2022-08-27T13:08:37.918Z,10.18
2022-08-27T13:13:40.444Z,9.57
2022-08-27T13:18:43.046Z,8.57
2022-08-27T13:23:54.030Z,8.32
2022-08-27T13:29:03.065Z,9.73
2022-08-27T13:34:07.723Z,10.32
2022-08-27T13:39:11.659Z,9.98
2022-08-27T13:44:19.723Z,9.70
2022-08-27T13:49:25.803Z,8.05
2022-08-27T13:54:31.282Z,7.55
2022-08-27T13:59:43.210Z,7.47
2022-08-27T14:04:48.573Z,6.80
2022-08-27T14:09:55.709Z,7.78
2022-08-27T14:14:58.805Z,7.55
2022-08-27T14:20:03.126Z,7.65
2022-08-27T14:25:10.238Z,7.53
2022-08-27T14:30:15.156Z,7.85
2022-08-27T14:35:24.964Z,7.32
2022-08-27T14:40:29.417Z,7.75
2022-08-27T14:45:33.249Z,7.28
2022-08-27T14:50:36.105Z,7.18
2022-08-27T14:55:40.266Z,7.57
2022-08-27T15:00:43.195Z,7.32
2022-08-27T15:05:45.707Z,7.07
2022-08-27T15:10:51.314Z,7.32
2022-08-27T15:15:53.883Z,6.88
2022-08-27T15:20:56.486Z,7.72
2022-08-27T15:26:04.170Z,6.10
2022-08-27T15:31:06.883Z,6.85
2022-08-27T15:36:09.598Z,6.27
2022-08-27T15:41:14.520Z,6.28
2022-08-27T15:46:17.239Z,5.50
2022-08-27T15:51:27.908Z,5.77
2022-08-27T15:56:34.555Z,5.82
2022-08-27T16:01:39.785Z,6.30
2022-08-27T16:06:42.450Z,6.30
2022-08-27T16:11:46.386Z,7.38
2022-08-27T16:16:50.278Z,7.05
2022-08-27T16:21:53.257Z,6.32
2022-08-27T16:26:57.174Z,6.93
2022-08-27T16:32:01.481Z,6.38
2022-08-27T16:37:04.134Z,5.80
2022-08-27T16:42:10.738Z,5.57
2022-08-27T16:47:13.406Z,5.85
2022-08-27T16:52:15.989Z,5.75
2022-08-27T16:57:19.942Z,4.47
2022-08-27T17:02:30.443Z,4.85
2022-08-27T17:07:33.311Z,5.55
2022-08-27T17:12:37.501Z,5.47
2022-08-27T17:17:40.665Z,4.65
2022-08-27T17:22:43.426Z,4.95
2022-08-27T17:27:47.259Z,4.75
2022-08-27T17:32:50.976Z,5.45
2022-08-27T17:37:53.635Z,5.40
2022-08-27T17:42:59.934Z,5.40
2022-08-27T17:48:06.119Z,5.50
2022-08-27T17:58:21.056Z,6.05
2022-08-27T18:03:24.096Z,5.68
2022-08-27T18:13:37.135Z,5.60
2022-08-27T18:18:41.353Z,6.20
2022-08-27T18:23:44.594Z,5.38
2022-08-27T18:28:49.402Z,6.18
2022-08-27T18:33:51.886Z,5.57
2022-08-27T18:38:55.319Z,5.75
2022-08-27T18:44:00.000Z,5.55
2022-08-27T18:49:02.558Z,5.07
2022-08-27T18:54:05.655Z,5.65
2022-08-27T18:59:10.777Z,5.33
2022-08-27T19:04:13.858Z,5.38
2022-08-27T19:09:16.550Z,5.00
2022-08-27T19:14:20.340Z,5.10
2022-08-27T19:19:25.792Z,4.80
2022-08-27T19:24:28.966Z,4.93
2022-08-27T19:29:32.870Z,4.90
2022-08-27T19:39:38.886Z,5.03
2022-08-27T19:44:42.945Z,5.07
2022-08-27T19:55:12.756Z,4.53
2022-08-27T20:00:17.581Z,5.03
2022-08-27T20:05:21.306Z,4.82
2022-08-27T20:10:31.860Z,5.03
2022-08-27T20:15:41.774Z,4.75
2022-08-27T20:20:44.918Z,5.07
2022-08-27T20:25:47.495Z,4.35
2022-08-27T20:30:51.433Z,4.38
2022-08-27T20:35:54.290Z,4.05
2022-08-27T20:40:56.789Z,4.25
2022-08-27T20:46:02.067Z,4.13
2022-08-27T20:51:04.724Z,3.92
2022-08-27T20:56:07.763Z,3.78
2022-08-27T21:01:12.576Z,4.07
2022-08-27T21:06:15.220Z,4.00
2022-08-27T21:11:18.326Z,3.50
2022-08-27T21:16:22.113Z,4.27
2022-08-27T21:21:24.814Z,4.18
2022-08-27T21:26:27.336Z,3.72
2022-08-27T21:31:31.550Z,3.50
2022-08-27T21:36:34.604Z,3.38
2022-08-27T21:41:37.751Z,3.10
2022-08-27T21:46:41.931Z,3.17
2022-08-27T21:51:44.537Z,3.10
2022-08-27T21:56:47.046Z,3.90
2022-08-27T22:02:00.146Z,3.67
2022-08-27T22:12:06.871Z,3.35
2022-08-27T22:17:11.044Z,3.45
2022-08-27T22:22:13.531Z,3.60
2022-08-27T22:27:16.201Z,3.85
2022-08-27T22:32:20.072Z,3.30
2022-08-27T22:42:25.001Z,3.42
2022-08-27T22:47:30.628Z,2.75
2022-08-27T22:52:38.911Z,3.20
2022-08-27T22:57:41.900Z,3.60
2022-08-27T23:02:46.216Z,3.37
2022-08-27T23:07:50.202Z,3.33
2022-08-27T23:17:59.751Z,3.33
2022-08-27T23:23:02.702Z,3.03
2022-08-27T23:28:06.599Z,3.07
2022-08-27T23:33:13.160Z,3.58
2022-08-27T23:38:16.915Z,2.92
2022-08-27T23:43:20.062Z,4.15
2022-08-27T23:48:25.990Z,3.80
2022-08-27T23:53:28.646Z,3.47
2022-08-27T23:58:31.170Z,2.10
